LTAG/ADF METAR and TAF weather

Enter ICAO airport designator
Station Type Date Time Source
LTAG METAR 2021/01/22 06:50 UTC NOAA

LTAG 220650Z 00000KT CAVOK 05/05 Q1031 NOSIG


Station Type Date Time Source
LTAG Decoded METAR 2021/01/22 06:50 UTC NOAA

Adana / Incirlik, Turkey (LTAG) 37-00N 035-25E 66M
Jan 22, 2021 - 01:50 AM EST / 2021.01.22 0650 UTC
Wind: Calm:0
Visibility: greater than 7 mile(s):0
Temperature: 41 F (5 C)
Dew Point: 41 F (5 C)
Relative Humidity: 100%
Pressure (altimeter): 30.45 in. Hg (1031 hPa)
ob: LTAG 220650Z 00000KT CAVOK 05/05 Q1031 NOSIG
cycle: 7

Station Type Date Time Source
LTAG TAF 2021/01/22 06:03 UTC NOAA

TAF TAF LTAG 220440Z 2206/2306 VRB02KT CAVOK

Example: see airport list